Terminal Aerodrome Forecast
Issued by NWS

Home | Current Version | Previous Version | Text Only | Print | Product List | Glossary On
Versions: 1 2 3 4 5 6 7 8 9 10 11 12 13 14 15 16 17 18 19 20 21 22 23 24 25 26 27 28 29
896
FTUS41 KBUF 071128
TAFIAG
TAF
KIAG 071128Z 0712/0812 26014G20KT P6SM SCT060
     FM072000 25014G24KT P6SM OVC035
     FM080100 24013KT P6SM BKN025
     FM080300 24012KT P6SM BKN035
     FM080700 25012G18KT P6SM BKN110
     FM081000 25012KT P6SM BKN130=

USA.gov is the U.S. government's official web portal to all federal, state and local government web resources and services.